sensor_id;sensor_type;location;lat;lon;timestamp;pressure;altitude;pressure_sealevel;temperature;humidity
15568;BME280;7885;42.596;23.044;2024-03-08T00:02:15;92901.03;;;7.29;100.00
15568;BME280;7885;42.596;23.044;2024-03-08T00:04:42;92907.25;;;7.33;100.00
15568;BME280;7885;42.596;23.044;2024-03-08T00:07:10;92898.78;;;7.34;100.00
15568;BME280;7885;42.596;23.044;2024-03-08T00:09:38;92907.28;;;7.36;100.00
15568;BME280;7885;42.596;23.044;2024-03-08T00:12:05;92898.78;;;7.34;100.00
15568;BME280;7885;42.596;23.044;2024-03-08T00:14:35;92900.31;;;7.35;100.00
15568;BME280;7885;42.596;23.044;2024-03-08T00:17:02;92908.84;;;7.37;100.00
15568;BME280;7885;42.596;23.044;2024-03-08T00:19:29;92907.31;;;7.40;100.00
15568;BME280;7885;42.596;23.044;2024-03-08T00:21:56;92905.41;;;7.40;100.00
15568;BME280;7885;42.596;23.044;2024-03-08T00:24:23;92891.00;;;7.33;100.00
15568;BME280;7885;42.596;23.044;2024-03-08T00:26:50;92901.88;;;7.36;100.00
15568;BME280;7885;42.596;23.044;2024-03-08T00:29:19;92903.44;;;7.37;100.00
15568;BME280;7885;42.596;23.044;2024-03-08T00:32:11;92898.78;;;7.34;100.00
15568;BME280;7885;42.596;23.044;2024-03-08T00:34:38;92895.69;;;7.36;100.00
15568;BME280;7885;42.596;23.044;2024-03-08T00:37:05;92891.81;;;7.37;100.00
15568;BME280;7885;42.596;23.044;2024-03-08T00:39:32;92894.91;;;7.35;100.00
15568;BME280;7885;42.596;23.044;2024-03-08T00:41:58;92885.59;;;7.33;100.00
15568;BME280;7885;42.596;23.044;2024-03-08T00:44:25;92868.94;;;7.27;100.00
15568;BME280;7885;42.596;23.044;2024-03-08T00:46:52;92893.00;;;7.39;100.00
15568;BME280;7885;42.596;23.044;2024-03-08T00:49:20;92892.25;;;7.42;100.00
15568;BME280;7885;42.596;23.044;2024-03-08T00:51:48;92883.34;;;7.42;100.00
15568;BME280;7885;42.596;23.044;2024-03-08T00:54:14;92878.69;;;7.39;100.00
15568;BME280;7885;42.596;23.044;2024-03-08T00:56:41;92884.13;;;7.42;100.00
15568;BME280;7885;42.596;23.044;2024-03-08T00:59:08;92884.53;;;7.44;100.00
15568;BME280;7885;42.596;23.044;2024-03-08T01:01:35;92879.13;;;7.44;100.00
15568;BME280;7885;42.596;23.044;2024-03-08T01:04:02;92876.41;;;7.44;100.00
15568;BME280;7885;42.596;23.044;2024-03-08T01:06:30;92877.91;;;7.38;100.00
15568;BME280;7885;42.596;23.044;2024-03-08T01:08:57;92870.13;;;7.30;100.00
15568;BME280;7885;42.596;23.044;2024-03-08T01:11:23;92859.94;;;7.16;100.00
15568;BME280;7885;42.596;23.044;2024-03-08T01:13:50;92872.72;;;7.19;100.00
15568;BME280;7885;42.596;23.044;2024-03-08T01:16:18;92867.66;;;7.14;100.00
15568;BME280;7885;42.596;23.044;2024-03-08T01:18:45;92874.97;;;7.10;100.00
15568;BME280;7885;42.596;23.044;2024-03-08T01:21:12;92861.38;;;7.03;100.00
15568;BME280;7885;42.596;23.044;2024-03-08T01:23:41;92859.81;;;7.02;100.00
15568;BME280;7885;42.596;23.044;2024-03-08T01:26:07;92858.25;;;7.01;100.00
15568;BME280;7885;42.596;23.044;2024-03-08T01:28:34;92855.44;;;6.90;100.00
15568;BME280;7885;42.596;23.044;2024-03-08T01:31:01;92846.13;;;6.84;100.00
15568;BME280;7885;42.596;23.044;2024-03-08T01:33:29;92847.97;;;6.77;100.00
15568;BME280;7885;42.596;23.044;2024-03-08T01:35:58;92835.56;;;6.69;100.00
15568;BME280;7885;42.596;23.044;2024-03-08T01:38:25;92841.03;;;6.76;100.00
15568;BME280;7885;42.596;23.044;2024-03-08T01:40:53;92845.72;;;6.82;100.00
15568;BME280;7885;42.596;23.044;2024-03-08T01:43:20;92844.13;;;6.78;100.00
15568;BME280;7885;42.596;23.044;2024-03-08T01:45:47;92843.00;;;6.79;100.00
15568;BME280;7885;42.596;23.044;2024-03-08T01:48:15;92850.38;;;6.82;100.00
15568;BME280;7885;42.596;23.044;2024-03-08T01:50:43;92848.06;;;6.84;100.00
15568;BME280;7885;42.596;23.044;2024-03-08T01:53:10;92843.31;;;6.74;100.00
15568;BME280;7885;42.596;23.044;2024-03-08T01:55:38;92849.56;;;6.78;100.00
15568;BME280;7885;42.596;23.044;2024-03-08T01:58:09;92847.94;;;6.73;100.00
15568;BME280;7885;42.596;23.044;2024-03-08T02:00:36;92838.63;;;6.67;100.00
15568;BME280;7885;42.596;23.044;2024-03-08T02:03:06;92841.03;;;6.76;100.00
15568;BME280;7885;42.596;23.044;2024-03-08T02:05:33;92844.13;;;6.78;100.00
15568;BME280;7885;42.596;23.044;2024-03-08T02:08:01;92845.28;;;6.77;100.00
15568;BME280;7885;42.596;23.044;2024-03-08T02:10:28;92845.66;;;6.75;100.00
15568;BME280;7885;42.596;23.044;2024-03-08T02:12:55;92843.28;;;6.70;100.00
15568;BME280;7885;42.596;23.044;2024-03-08T02:15:23;92840.97;;;6.69;100.00
15568;BME280;7885;42.596;23.044;2024-03-08T02:17:50;92850.63;;;6.70;100.00
15568;BME280;7885;42.596;23.044;2024-03-08T02:20:16;92845.59;;;6.68;100.00
15568;BME280;7885;42.596;23.044;2024-03-08T02:22:46;92844.47;;;6.73;100.00
15568;BME280;7885;42.596;23.044;2024-03-08T02:25:13;92837.53;;;6.72;100.00
15568;BME280;7885;42.596;23.044;2024-03-08T02:27:39;92830.91;;;6.69;100.00
15568;BME280;7885;42.596;23.044;2024-03-08T02:30:07;92840.22;;;6.72;100.00
15568;BME280;7885;42.596;23.044;2024-03-08T02:32:35;92841.78;;;6.76;100.00
15568;BME280;7885;42.596;23.044;2024-03-08T02:35:02;92827.84;;;6.71;100.00
15568;BME280;7885;42.596;23.044;2024-03-08T02:37:28;92844.91;;;6.78;100.00
15568;BME280;7885;42.596;23.044;2024-03-08T02:39:57;92843.75;;;6.79;100.00
15568;BME280;7885;42.596;23.044;2024-03-08T02:42:23;92835.22;;;6.74;100.00
15568;BME280;7885;42.596;23.044;2024-03-08T02:44:50;92827.84;;;6.71;100.00
15568;BME280;7885;42.596;23.044;2024-03-08T02:47:17;92840.28;;;6.79;100.00
15568;BME280;7885;42.596;23.044;2024-03-08T02:49:43;92836.84;;;6.82;100.00
15568;BME280;7885;42.596;23.044;2024-03-08T02:52:11;92837.97;;;6.81;100.00
15568;BME280;7885;42.596;23.044;2024-03-08T02:54:37;92841.81;;;6.80;100.00
15568;BME280;7885;42.596;23.044;2024-03-08T02:57:05;92842.19;;;6.75;100.00
15568;BME280;7885;42.596;23.044;2024-03-08T02:59:33;92844.47;;;6.73;100.00
15568;BME280;7885;42.596;23.044;2024-03-08T03:02:00;92814.56;;;6.58;100.00
15568;BME280;7885;42.596;23.044;2024-03-08T03:04:27;92837.09;;;6.70;100.00
15568;BME280;7885;42.596;23.044;2024-03-08T03:06:54;92838.22;;;6.65;100.00
15568;BME280;7885;42.596;23.044;2024-03-08T03:09:20;92832.38;;;6.59;100.00
15568;BME280;7885;42.596;23.044;2024-03-08T03:11:53;92832.28;;;6.52;100.00
15568;BME280;7885;42.596;23.044;2024-03-08T03:14:21;92844.34;;;6.62;100.00
15568;BME280;7885;42.596;23.044;2024-03-08T03:16:47;92852.84;;;6.60;100.00
15568;BME280;7885;42.596;23.044;2024-03-08T03:19:15;92858.25;;;6.60;100.00
15568;BME280;7885;42.596;23.044;2024-03-08T03:21:42;92855.56;;;6.60;100.00
15568;BME280;7885;42.596;23.044;2024-03-08T03:24:09;92857.88;;;6.62;100.00
15568;BME280;7885;42.596;23.044;2024-03-08T03:26:36;92861.41;;;6.66;100.00
15568;BME280;7885;42.596;23.044;2024-03-08T03:29:04;92859.81;;;6.62;100.00
15568;BME280;7885;42.596;23.044;2024-03-08T03:31:35;92871.09;;;6.71;100.00
15568;BME280;7885;42.596;23.044;2024-03-08T03:34:02;92869.22;;;6.75;100.00
15568;BME280;7885;42.596;23.044;2024-03-08T03:36:29;92866.53;;;6.75;100.00
15568;BME280;7885;42.596;23.044;2024-03-08T03:38:56;92871.63;;;6.83;100.00
15568;BME280;7885;42.596;23.044;2024-03-08T03:41:32;92868.88;;;6.80;100.00
15568;BME280;7885;42.596;23.044;2024-03-08T03:43:59;92877.00;;;6.80;100.00
15568;BME280;7885;42.596;23.044;2024-03-08T03:46:26;92874.28;;;6.80;100.00
15568;BME280;7885;42.596;23.044;2024-03-08T03:48:55;92879.72;;;6.83;100.00
15568;BME280;7885;42.596;23.044;2024-03-08T03:51:21;92885.91;;;6.84;100.00
15568;BME280;7885;42.596;23.044;2024-03-08T03:53:48;92878.22;;;6.86;100.00
15568;BME280;7885;42.596;23.044;2024-03-08T03:56:15;92885.91;;;6.84;100.00
15568;BME280;7885;42.596;23.044;2024-03-08T03:58:42;92883.22;;;6.84;100.00
15568;BME280;7885;42.596;23.044;2024-03-08T04:01:08;92882.06;;;6.85;100.00
15568;BME280;7885;42.596;23.044;2024-03-08T04:03:36;92883.63;;;6.86;100.00
15568;BME280;7885;42.596;23.044;2024-03-08T04:06:04;92893.72;;;6.89;100.00
15568;BME280;7885;42.596;23.044;2024-03-08T04:08:31;92892.16;;;6.88;100.00
15568;BME280;7885;42.596;23.044;2024-03-08T04:11:00;92899.94;;;6.93;100.00
15568;BME280;7885;42.596;23.044;2024-03-08T04:13:26;92892.13;;;6.84;100.00
15568;BME280;7885;42.596;23.044;2024-03-08T04:15:53;92894.84;;;6.88;100.00
15568;BME280;7885;42.596;23.044;2024-03-08T04:18:20;92896.41;;;6.89;100.00
15568;BME280;7885;42.596;23.044;2024-03-08T04:20:47;92902.06;;;6.77;98.91
15568;BME280;7885;42.596;23.044;2024-03-08T04:23:15;92890.44;;;6.73;99.71
15568;BME280;7885;42.596;23.044;2024-03-08T04:25:43;92906.75;;;6.80;100.00
15568;BME280;7885;42.596;23.044;2024-03-08T04:28:10;92904.78;;;6.77;99.45
15568;BME280;7885;42.596;23.044;2024-03-08T04:30:37;92913.97;;;6.69;98.24
15568;BME280;7885;42.596;23.044;2024-03-08T04:33:05;92915.78;;;6.57;98.94
15568;BME280;7885;42.596;23.044;2024-03-08T04:35:32;92919.59;;;6.53;99.98
15568;BME280;7885;42.596;23.044;2024-03-08T04:37:59;92916.09;;;6.52;100.00
15568;BME280;7885;42.596;23.044;2024-03-08T04:40:27;92920.31;;;6.50;100.00
15568;BME280;7885;42.596;23.044;2024-03-08T04:42:54;92920.28;;;6.46;100.00
15568;BME280;7885;42.596;23.044;2024-03-08T04:45:21;92919.53;;;6.49;100.00
15568;BME280;7885;42.596;23.044;2024-03-08T04:47:48;92926.56;;;6.54;100.00
15568;BME280;7885;42.596;23.044;2024-03-08T04:50:15;92917.25;;;6.51;100.00
15568;BME280;7885;42.596;23.044;2024-03-08T04:52:41;92918.00;;;6.52;100.00
15568;BME280;7885;42.596;23.044;2024-03-08T04:55:08;92922.72;;;6.55;100.00
15568;BME280;7885;42.596;23.044;2024-03-08T04:57:37;92930.22;;;6.39;100.00
15568;BME280;7885;42.596;23.044;2024-03-08T05:00:04;92930.13;;;6.32;100.00
15568;BME280;7885;42.596;23.044;2024-03-08T05:02:36;92924.81;;;6.39;100.00
15568;BME280;7885;42.596;23.044;2024-03-08T05:05:04;92933.31;;;6.37;100.00
15568;BME280;7885;42.596;23.044;2024-03-08T05:07:32;92932.38;;;6.26;100.00
15568;BME280;7885;42.596;23.044;2024-03-08T05:09:59;92934.66;;;6.24;100.00
15568;BME280;7885;42.596;23.044;2024-03-08T05:12:26;92936.81;;;6.12;100.00
15568;BME280;7885;42.596;23.044;2024-03-08T05:14:54;92940.94;;;5.79;100.00
15568;BME280;7885;42.596;23.044;2024-03-08T05:17:20;92942.31;;;5.89;100.00
15568;BME280;7885;42.596;23.044;2024-03-08T05:19:49;92947.38;;;5.94;100.00
15568;BME280;7885;42.596;23.044;2024-03-08T05:22:16;92951.53;;;5.88;100.00
15568;BME280;7885;42.596;23.044;2024-03-08T05:24:42;92950.88;;;5.72;100.00
15568;BME280;7885;42.596;23.044;2024-03-08T05:27:09;92955.75;;;5.63;100.00
15568;BME280;7885;42.596;23.044;2024-03-08T05:29:36;92961.53;;;5.61;100.00
15568;BME280;7885;42.596;23.044;2024-03-08T05:32:04;92963.66;;;5.75;100.00
15568;BME280;7885;42.596;23.044;2024-03-08T05:34:32;92956.69;;;5.74;100.00
15568;BME280;7885;42.596;23.044;2024-03-08T05:36:59;92970.19;;;5.96;100.00
15568;BME280;7885;42.596;23.044;2024-03-08T05:39:26;92966.91;;;6.10;100.00
15568;BME280;7885;42.596;23.044;2024-03-08T05:41:53;92970.97;;;6.23;100.00
15568;BME280;7885;42.596;23.044;2024-03-08T05:44:22;92978.81;;;6.35;100.00
15568;BME280;7885;42.596;23.044;2024-03-08T05:46:48;92977.41;;;6.45;99.01
15568;BME280;7885;42.596;23.044;2024-03-08T05:49:17;92977.53;;;6.55;97.59
15568;BME280;7885;42.596;23.044;2024-03-08T05:51:44;92987.00;;;6.69;97.50
15568;BME280;7885;42.596;23.044;2024-03-08T05:54:12;92986.66;;;6.74;97.87
15568;BME280;7885;42.596;23.044;2024-03-08T05:56:39;92987.88;;;6.80;97.46
15568;BME280;7885;42.596;23.044;2024-03-08T05:59:08;92992.69;;;6.93;97.41
15568;BME280;7885;42.596;23.044;2024-03-08T06:01:35;93006.66;;;6.99;96.25
15568;BME280;7885;42.596;23.044;2024-03-08T06:04:03;92999.69;;;6.98;95.53
15568;BME280;7885;42.596;23.044;2024-03-08T06:06:31;93005.94;;;7.02;94.20
15568;BME280;7885;42.596;23.044;2024-03-08T06:08:58;93013.56;;;6.96;94.57
15568;BME280;7885;42.596;23.044;2024-03-08T06:11:25;93011.34;;;7.02;95.68
15568;BME280;7885;42.596;23.044;2024-03-08T06:13:53;93013.31;;;7.05;95.12
15568;BME280;7885;42.596;23.044;2024-03-08T06:16:25;93015.19;;;7.01;95.11
15568;BME280;7885;42.596;23.044;2024-03-08T06:18:55;93014.78;;;6.99;95.43
15568;BME280;7885;42.596;23.044;2024-03-08T06:21:22;93022.06;;;6.95;95.93
15568;BME280;7885;42.596;23.044;2024-03-08T06:23:53;93014.28;;;6.90;96.21
15568;BME280;7885;42.596;23.044;2024-03-08T06:26:20;93029.81;;;6.96;96.16
15568;BME280;7885;42.596;23.044;2024-03-08T06:28:47;93018.97;;;6.93;95.67
15568;BME280;7885;42.596;23.044;2024-03-08T06:31:14;93026.78;;;7.01;95.80
15568;BME280;7885;42.596;23.044;2024-03-08T06:33:42;93028.41;;;7.06;95.99
15568;BME280;7885;42.596;23.044;2024-03-08T06:36:09;93027.56;;;7.02;95.05
15568;BME280;7885;42.596;23.044;2024-03-08T06:38:37;93029.97;;;7.10;95.87
15568;BME280;7885;42.596;23.044;2024-03-08T06:41:09;93029.22;;;7.10;94.98
15568;BME280;7885;42.596;23.044;2024-03-08T06:43:40;93022.72;;;6.85;94.62
15568;BME280;7885;42.596;23.044;2024-03-08T06:46:07;93039.06;;;6.92;95.33
15568;BME280;7885;42.596;23.044;2024-03-08T06:48:34;93033.72;;;6.99;95.73
15568;BME280;7885;42.596;23.044;2024-03-08T06:51:02;93037.75;;;7.12;95.68
15568;BME280;7885;42.596;23.044;2024-03-08T06:53:29;93037.00;;;7.15;95.52
15568;BME280;7885;42.596;23.044;2024-03-08T06:55:56;93028.41;;;7.06;95.14
15568;BME280;7885;42.596;23.044;2024-03-08T06:58:24;93044.28;;;7.11;95.09
15568;BME280;7885;42.596;23.044;2024-03-08T07:00:51;93037.56;;;6.98;95.64
15568;BME280;7885;42.596;23.044;2024-03-08T07:03:18;93049.13;;;6.95;96.20
15568;BME280;7885;42.596;23.044;2024-03-08T07:05:47;93036.16;;;6.78;95.82
15568;BME280;7885;42.596;23.044;2024-03-08T07:08:14;93041.25;;;6.83;96.46
15568;BME280;7885;42.596;23.044;2024-03-08T07:10:41;93040.84;;;6.81;96.94
15568;BME280;7885;42.596;23.044;2024-03-08T07:13:10;93043.91;;;6.79;97.27
15568;BME280;7885;42.596;23.044;2024-03-08T07:15:38;93045.94;;;6.86;97.99
15568;BME280;7885;42.596;23.044;2024-03-08T07:18:05;93043.72;;;6.95;96.81
15568;BME280;7885;42.596;23.044;2024-03-08T07:20:34;93044.22;;;7.04;96.99
15568;BME280;7885;42.596;23.044;2024-03-08T07:23:02;93038.53;;;7.13;96.69
15568;BME280;7885;42.596;23.044;2024-03-08T07:25:29;93041.59;;;7.11;96.43
15568;BME280;7885;42.596;23.044;2024-03-08T07:27:56;93048.66;;;7.19;95.93
15568;BME280;7885;42.596;23.044;2024-03-08T07:30:26;93041.81;;;7.32;96.08
15568;BME280;7885;42.596;23.044;2024-03-08T07:33:13;93040.28;;;7.35;95.58
15568;BME280;7885;42.596;23.044;2024-03-08T07:35:40;93050.47;;;7.45;95.14
15568;BME280;7885;42.596;23.044;2024-03-08T07:38:07;93050.56;;;7.55;94.65
15568;BME280;7885;42.596;23.044;2024-03-08T07:40:35;93045.16;;;7.55;94.46
15568;BME280;7885;42.596;23.044;2024-03-08T07:43:03;93045.78;;;7.79;94.84
15568;BME280;7885;42.596;23.044;2024-03-08T07:45:30;93045.91;;;7.93;93.36
15568;BME280;7885;42.596;23.044;2024-03-08T07:47:57;93041.69;;;7.99;92.42
15568;BME280;7885;42.596;23.044;2024-03-08T07:50:25;93047.25;;;8.17;92.84
15568;BME280;7885;42.596;23.044;2024-03-08T07:52:52;93046.63;;;8.30;92.11
15568;BME280;7885;42.596;23.044;2024-03-08T07:55:18;93042.41;;;8.36;91.45
15568;BME280;7885;42.596;23.044;2024-03-08T07:57:45;93052.84;;;8.38;91.94
15568;BME280;7885;42.596;23.044;2024-03-08T08:00:14;93053.13;;;8.26;91.90
15568;BME280;7885;42.596;23.044;2024-03-08T08:02:43;93040.34;;;8.26;92.61
15568;BME280;7885;42.596;23.044;2024-03-08T08:05:10;93053.63;;;8.38;92.02
15568;BME280;7885;42.596;23.044;2024-03-08T08:07:39;93045.88;;;8.33;92.25
15568;BME280;7885;42.596;23.044;2024-03-08T08:10:09;93049.78;;;8.39;91.46
15568;BME280;7885;42.596;23.044;2024-03-08T08:12:42;93035.41;;;8.35;92.07
15568;BME280;7885;42.596;23.044;2024-03-08T08:15:09;93059.28;;;8.74;92.03
15568;BME280;7885;42.596;23.044;2024-03-08T08:17:35;93056.66;;;8.88;90.15
15568;BME280;7885;42.596;23.044;2024-03-08T08:20:04;93061.75;;;9.00;89.50
15568;BME280;7885;42.596;23.044;2024-03-08T08:22:31;93058.66;;;8.98;89.52
15568;BME280;7885;42.596;23.044;2024-03-08T08:24:59;93059.38;;;8.88;89.68
15568;BME280;7885;42.596;23.044;2024-03-08T08:27:27;93054.75;;;8.95;90.37
15568;BME280;7885;42.596;23.044;2024-03-08T08:29:53;93059.47;;;9.09;90.19
15568;BME280;7885;42.596;23.044;2024-03-08T08:32:21;93053.41;;;9.40;88.04
15568;BME280;7885;42.596;23.044;2024-03-08T08:34:47;93056.56;;;9.71;86.42
15568;BME280;7885;42.596;23.044;2024-03-08T08:37:14;93063.59;;;9.96;85.74
15568;BME280;7885;42.596;23.044;2024-03-08T08:39:41;93058.97;;;10.11;84.63
15568;BME280;7885;42.596;23.044;2024-03-08T08:42:09;93054.34;;;10.29;84.15
15568;BME280;7885;42.596;23.044;2024-03-08T08:44:36;93063.53;;;11.20;82.13
15568;BME280;7885;42.596;23.044;2024-03-08T08:47:03;93060.44;;;12.53;76.71
15568;BME280;7885;42.596;23.044;2024-03-08T08:49:30;93055.72;;;13.39;72.65
15568;BME280;7885;42.596;23.044;2024-03-08T08:51:57;93065.50;;;14.27;69.23
15568;BME280;7885;42.596;23.044;2024-03-08T08:54:24;93062.47;;;14.95;65.87
15568;BME280;7885;42.596;23.044;2024-03-08T08:56:52;93058.00;;;14.58;64.45
15568;BME280;7885;42.596;23.044;2024-03-08T08:59:21;93066.78;;;14.19;64.94
15568;BME280;7885;42.596;23.044;2024-03-08T09:01:50;93056.22;;;13.91;66.13
15568;BME280;7885;42.596;23.044;2024-03-08T09:04:19;93059.78;;;13.57;66.67
15568;BME280;7885;42.596;23.044;2024-03-08T09:06:47;93056.56;;;12.95;67.64
15568;BME280;7885;42.596;23.044;2024-03-08T09:09:13;93051.00;;;12.64;69.14
15568;BME280;7885;42.596;23.044;2024-03-08T09:11:42;93056.59;;;12.47;69.55
15568;BME280;7885;42.596;23.044;2024-03-08T09:14:09;93044.69;;;12.23;71.25
15568;BME280;7885;42.596;23.044;2024-03-08T09:16:38;93049.56;;;12.49;69.64
15568;BME280;7885;42.596;23.044;2024-03-08T09:19:05;93037.72;;;13.41;67.88
15568;BME280;7885;42.596;23.044;2024-03-08T09:21:32;93037.44;;;15.16;62.30
15568;BME280;7885;42.596;23.044;2024-03-08T09:24:00;93043.75;;;16.28;55.89
15568;BME280;7885;42.596;23.044;2024-03-08T09:26:26;93029.78;;;17.48;51.77
15568;BME280;7885;42.596;23.044;2024-03-08T09:28:53;93042.22;;;16.79;51.94
15568;BME280;7885;42.596;23.044;2024-03-08T09:31:21;93041.09;;;15.29;53.69
15568;BME280;7885;42.596;23.044;2024-03-08T09:33:49;93044.06;;;14.49;57.50
15568;BME280;7885;42.596;23.044;2024-03-08T09:36:17;93040.63;;;14.14;59.37
15568;BME280;7885;42.596;23.044;2024-03-08T09:38:44;93046.66;;;13.76;60.79
15568;BME280;7885;42.596;23.044;2024-03-08T09:41:10;93049.53;;;13.65;60.76
15568;BME280;7885;42.596;23.044;2024-03-08T09:43:38;93043.56;;;13.43;61.58
15568;BME280;7885;42.596;23.044;2024-03-08T09:46:06;93052.09;;;14.59;59.49
15568;BME280;7885;42.596;23.044;2024-03-08T09:48:34;93052.25;;;15.18;53.47
15568;BME280;7885;42.596;23.044;2024-03-08T09:51:03;93052.28;;;15.38;53.13
15568;BME280;7885;42.596;23.044;2024-03-08T09:53:30;93055.81;;;14.96;55.46
15568;BME280;7885;42.596;23.044;2024-03-08T09:55:57;93040.03;;;15.23;54.34
15568;BME280;7885;42.596;23.044;2024-03-08T09:58:24;93052.22;;;14.99;53.94
15568;BME280;7885;42.596;23.044;2024-03-08T10:01:07;93042.63;;;14.87;54.84
15568;BME280;7885;42.596;23.044;2024-03-08T10:03:34;93052.00;;;15.72;52.56
15568;BME280;7885;42.596;23.044;2024-03-08T10:06:03;93051.00;;;18.05;45.63
15568;BME280;7885;42.596;23.044;2024-03-08T10:08:31;93042.28;;;19.20;39.66
15568;BME280;7885;42.596;23.044;2024-03-08T10:10:58;93045.53;;;19.62;37.76
15568;BME280;7885;42.596;23.044;2024-03-08T10:13:25;93034.59;;;21.98;33.28
15568;BME280;7885;42.596;23.044;2024-03-08T10:15:53;93033.81;;;21.34;33.12
15568;BME280;7885;42.596;23.044;2024-03-08T10:18:20;93034.25;;;21.23;32.97
15568;BME280;7885;42.596;23.044;2024-03-08T10:21:03;93027.94;;;22.13;31.87
15568;BME280;7885;42.596;23.044;2024-03-08T10:23:34;93035.34;;;24.19;29.07
15568;BME280;7885;42.596;23.044;2024-03-08T10:26:11;93037.06;;;25.59;27.71
15568;BME280;7885;42.596;23.044;2024-03-08T10:28:40;93030.94;;;25.55;26.07
15568;BME280;7885;42.596;23.044;2024-03-08T10:31:08;93031.75;;;23.18;27.68
15568;BME280;7885;42.596;23.044;2024-03-08T10:33:35;93024.19;;;20.98;30.47
15568;BME280;7885;42.596;23.044;2024-03-08T10:36:06;93021.00;;;21.18;33.43
15568;BME280;7885;42.596;23.044;2024-03-08T10:38:35;93028.50;;;22.87;31.16
15568;BME280;7885;42.596;23.044;2024-03-08T10:41:03;93027.97;;;23.78;28.45
15568;BME280;7885;42.596;23.044;2024-03-08T10:43:37;93017.97;;;21.80;28.76
15568;BME280;7885;42.596;23.044;2024-03-08T10:46:21;93000.72;;;21.21;30.52
15568;BME280;7885;42.596;23.044;2024-03-08T10:48:52;93008.72;;;22.01;29.81
15568;BME280;7885;42.596;23.044;2024-03-08T10:51:23;93011.19;;;21.81;28.94
15568;BME280;7885;42.596;23.044;2024-03-08T10:53:52;93006.00;;;19.87;31.96
15568;BME280;7885;42.596;23.044;2024-03-08T10:56:19;93010.13;;;20.75;33.14
15568;BME280;7885;42.596;23.044;2024-03-08T10:58:48;93005.56;;;20.19;31.13
15568;BME280;7885;42.596;23.044;2024-03-08T11:01:15;92995.44;;;20.16;32.87
15568;BME280;7885;42.596;23.044;2024-03-08T11:03:46;92990.75;;;21.60;30.40
15568;BME280;7885;42.596;23.044;2024-03-08T11:06:15;92978.41;;;22.06;30.46
15568;BME280;7885;42.596;23.044;2024-03-08T11:08:44;92983.81;;;21.74;29.73
15568;BME280;7885;42.596;23.044;2024-03-08T11:11:24;92969.50;;;21.57;30.79
15568;BME280;7885;42.596;23.044;2024-03-08T11:13:53;92972.91;;;22.72;27.99
15568;BME280;7885;42.596;23.044;2024-03-08T11:16:38;92977.50;;;22.84;27.06
15568;BME280;7885;42.596;23.044;2024-03-08T11:19:24;92975.47;;;21.83;29.14
15568;BME280;7885;42.596;23.044;2024-03-08T11:22:00;92972.72;;;22.43;29.94
15568;BME280;7885;42.596;23.044;2024-03-08T11:24:36;92974.34;;;24.30;28.38
15568;BME280;7885;42.596;23.044;2024-03-08T11:27:05;92973.56;;;25.29;26.64
15568;BME280;7885;42.596;23.044;2024-03-08T11:29:38;92964.38;;;25.23;26.41
15568;BME280;7885;42.596;23.044;2024-03-08T11:32:10;92971.56;;;24.30;26.26
15568;BME280;7885;42.596;23.044;2024-03-08T11:34:37;92970.28;;;23.25;28.10
15568;BME280;7885;42.596;23.044;2024-03-08T11:37:05;92964.69;;;22.03;29.04
15568;BME280;7885;42.596;23.044;2024-03-08T11:39:36;92960.53;;;21.07;30.74
15568;BME280;7885;42.596;23.044;2024-03-08T11:42:04;92962.31;;;19.94;32.33
15568;BME280;7885;42.596;23.044;2024-03-08T11:44:31;92956.19;;;19.34;33.60
15568;BME280;7885;42.596;23.044;2024-03-08T11:46:58;92964.72;;;18.71;34.91
15568;BME280;7885;42.596;23.044;2024-03-08T11:49:24;92963.19;;;18.20;35.90
15568;BME280;7885;42.596;23.044;2024-03-08T11:51:52;92965.06;;;17.85;36.20
15568;BME280;7885;42.596;23.044;2024-03-08T11:54:19;92957.47;;;17.47;36.56
15568;BME280;7885;42.596;23.044;2024-03-08T11:56:47;92953.72;;;18.08;37.09
15568;BME280;7885;42.596;23.044;2024-03-08T11:59:14;92951.16;;;18.64;35.21
15568;BME280;7885;42.596;23.044;2024-03-08T12:01:42;92941.03;;;18.95;35.77
15568;BME280;7885;42.596;23.044;2024-03-08T12:04:12;92939.69;;;19.56;32.99
15568;BME280;7885;42.596;23.044;2024-03-08T12:06:40;92943.84;;;19.60;34.30
15568;BME280;7885;42.596;23.044;2024-03-08T12:09:11;92942.09;;;19.32;35.76
15568;BME280;7885;42.596;23.044;2024-03-08T12:11:39;92932.09;;;19.26;35.71
15568;BME280;7885;42.596;23.044;2024-03-08T12:14:07;92941.38;;;19.19;35.60
15568;BME280;7885;42.596;23.044;2024-03-08T12:16:36;92946.03;;;18.88;35.90
15568;BME280;7885;42.596;23.044;2024-03-08T12:19:03;92943.56;;;18.68;36.60
15568;BME280;7885;42.596;23.044;2024-03-08T12:21:31;92936.84;;;18.31;37.03
15568;BME280;7885;42.596;23.044;2024-03-08T12:24:04;92942.56;;;18.24;36.71
15568;BME280;7885;42.596;23.044;2024-03-08T12:26:35;92940.41;;;18.06;37.42
15568;BME280;7885;42.596;23.044;2024-03-08T12:29:22;92939.41;;;18.13;37.49
15568;BME280;7885;42.596;23.044;2024-03-08T12:31:54;92937.06;;;18.24;38.07
15568;BME280;7885;42.596;23.044;2024-03-08T12:34:21;92935.50;;;17.73;36.76
15568;BME280;7885;42.596;23.044;2024-03-08T12:36:49;92932.97;;;17.65;36.95
15568;BME280;7885;42.596;23.044;2024-03-08T12:39:17;92924.91;;;17.58;36.75
15568;BME280;7885;42.596;23.044;2024-03-08T12:41:47;92931.56;;;17.03;36.15
15568;BME280;7885;42.596;23.044;2024-03-08T12:44:16;92909.41;;;16.65;37.57
15568;BME280;7885;42.596;23.044;2024-03-08T12:46:44;92927.78;;;16.85;38.97
15568;BME280;7885;42.596;23.044;2024-03-08T12:49:11;92926.81;;;16.91;40.01
15568;BME280;7885;42.596;23.044;2024-03-08T12:51:38;92923.50;;;16.96;39.02
15568;BME280;7885;42.596;23.044;2024-03-08T12:54:05;92917.47;;;16.89;39.35
15568;BME280;7885;42.596;23.044;2024-03-08T12:56:34;92910.59;;;16.81;40.46
15568;BME280;7885;42.596;23.044;2024-03-08T12:59:03;92915.41;;;16.77;39.72
15568;BME280;7885;42.596;23.044;2024-03-08T13:01:31;92920.72;;;16.84;39.73
15568;BME280;7885;42.596;23.044;2024-03-08T13:03:58;92917.66;;;16.82;39.56
15568;BME280;7885;42.596;23.044;2024-03-08T13:06:25;92915.09;;;16.75;38.31
15568;BME280;7885;42.596;23.044;2024-03-08T13:08:54;92916.28;;;16.74;39.23